Latest Weather Observations for Spring Bay

IDT60801

Issued at 8:33 pm EDT Tuesday 31 March 2015 (issued every 30 minutes, with the page automatically refreshed every 10 minutes)

About weather observations | Map of weather stations | Latest weather observations for TAS | Other Formats
Station Details ID: 092133 Name: SPRING BAY NTC AWS Lat: -42.55 Lon: 147.93 Height: 0.0 m
Data from the previous 72 hours. | See also: Recent months for locations in Tasmania
Date/Time
EDT
Temp
°C
App
Temp
°C
Dew
Point
Rel
Hum
%
Delta-T
°C
Wind Press
QNH
hPa
Press
MSL
hPa
Rain
since 9 am
mm
Dir
 
Spd
km/h
Gust
km/h
Spd
kts
Gust
kts
31/08:30pm 15.7 - - - - - - - - - 1020.3 1020.3 -
31/08:00pm 15.8 - - - - - - - - - 1020.3 1020.3 -
31/07:30pm 16.5 - - - - - - - - - 1020.0 1020.0 -
31/07:00pm 17.1 - - - - - - - - - 1019.6 1019.6 -
31/06:30pm 18.0 - - - - - - - - - 1019.6 1019.6 -
31/06:00pm 18.7 - - - - - - - - - 1019.4 1019.4 -
31/05:30pm 19.2 - - - - - - - - - 1019.5 1019.5 -
31/05:00pm 18.8 - - - - - - - - - 1019.7 1019.7 -
31/04:30pm 19.2 - - - - - - - - - 1019.8 1019.8 -
31/04:00pm 19.9 - - - - - - - - - 1019.9 1019.9 -
31/03:30pm 19.2 - - - - - - - - - 1020.0 1020.0 -
31/03:00pm 18.3 - - - - - - - - - 1020.4 1020.4 -
31/02:30pm 18.4 - - - - - - - - - 1020.9 1020.9 -
31/02:00pm 18.9 - - - - - - - - - 1021.2 1021.2 -
31/01:30pm 19.1 - - - - - - - - - 1021.5 1021.5 -
31/01:00pm 18.2 - - - - - - - - - 1021.9 1021.9 -
31/12:30pm 17.8 - - - - - - - - - 1022.2 1022.2 -
31/12:00pm 17.8 - - - - - - - - - 1022.5 1022.5 -
31/11:30am 17.2 - - - - - - - - - 1023.0 1023.0 -
31/11:00am 17.4 - - - - - - - - - 1023.5 1023.5 -
31/10:30am 16.3 - - - - - - - - - 1023.8 1023.8 -
31/10:00am 16.0 - - - - - - - - - 1023.8 1023.8 -
31/09:30am 14.9 - - - - - - - - - 1024.0 1024.0 -
31/09:00am 13.2 - - - - - - - - - 1024.0 1024.0 -
31/08:30am 12.6 - - - - - - - - - 1024.0 1024.0 -
31/08:00am 10.2 - - - - - - - - - 1023.8 1023.8 -
31/07:30am 10.4 - - - - - - - - - 1023.5 1023.5 -
31/07:00am 10.5 - - - - - - - - - 1023.3 1023.3 -
31/06:30am 10.8 - - - - - - - - - 1023.2 1023.2 -
31/06:00am 10.0 - - - - - - - - - 1023.0 1023.0 -
31/05:30am 10.2 - - - - - - - - - 1022.8 1022.8 -
31/05:00am 10.4 - - - - - - - - - 1022.6 1022.6 -
31/04:30am 10.8 - - - - - - - - - 1022.6 1022.6 -
31/04:00am 10.7 - - - - - - - - - 1022.5 1022.5 -
31/03:30am 11.4 - - - - - - - - - 1022.9 1022.9 -
31/03:00am 11.1 - - - - - - - - - 1022.9 1022.9 -
31/02:30am 11.8 - - - - - - - - - 1023.1 1023.1 -
31/02:00am 12.4 - - - - - - - - - 1023.1 1023.1 -
31/01:30am 12.2 - - - - - - - - - 1023.0 1023.0 -
31/01:00am 12.5 - - - - - - - - - 1022.9 1022.9 -
31/12:30am 13.4 - - - - - - - - - 1022.9 1022.9 -
31/12:00am 13.2 - - - - - - - - - 1023.0 1023.0 -
 
Date/Time
EDT
Temp
°C
App
Temp
°C
Dew
Point
Rel
Hum
%
Delta-T
°C
Wind Press
QNH
hPa
Press
MSL
hPa
Rain
since 9 am
mm
Dir
 
Spd
km/h
Gust
km/h
Spd
kts
Gust
kts
30/11:30pm 13.7 - - - - - - - - - 1023.0 1023.0 -
30/11:00pm 13.9 - - - - - - - - - 1023.1 1023.1 -
30/10:30pm 14.3 - - - - - - - - - 1023.1 1023.1 -
30/10:00pm 15.1 - - - - - - - - - 1022.9 1022.9 -
30/09:30pm 15.8 - - - - - - - - - 1022.6 1022.6 -
30/09:00pm 15.8 - - - - - - - - - 1022.3 1022.3 -
30/08:30pm 16.1 - - - - - - - - - 1021.8 1021.8 -
30/08:00pm 16.2 - - - - - - - - - 1021.3 1021.3 -
30/07:30pm 16.8 - - - - - - - - - 1020.6 1020.6 -
30/07:00pm 17.9 - - - - - - - - - 1020.0 1020.0 -
30/06:30pm 18.9 - - - - - - - - - 1019.4 1019.4 -
30/06:00pm 18.9 - - - - - - - - - 1018.7 1018.7 -
30/05:30pm 19.6 - - - - - - - - - 1018.2 1018.2 -
30/05:00pm 19.9 - - - - - - - - - 1017.8 1017.8 -
30/04:30pm 19.6 - - - - - - - - - 1017.6 1017.6 -
30/04:00pm 20.0 - - - - - - - - - 1017.6 1017.6 -
30/03:30pm 20.9 - - - - - - - - - 1017.6 1017.6 -
30/03:00pm 20.8 - - - - - - - - - 1017.5 1017.5 -
30/02:30pm 21.3 - - - - - - - - - 1017.5 1017.5 -
30/02:00pm 20.8 - - - - - - - - - 1017.7 1017.7 -
30/01:30pm 20.6 - - - - - - - - - 1017.9 1017.9 -
30/01:00pm 20.6 - - - - - - - - - 1018.2 1018.2 -
30/12:30pm 19.9 - - - - - - - - - 1018.3 1018.3 -
30/12:00pm 19.5 - - - - - - - - - 1018.5 1018.5 -
30/11:30am 20.3 - - - - - - - - - 1018.6 1018.6 -
30/11:00am 18.4 - - - - - - - - - 1018.7 1018.7 -
30/10:30am 17.6 - - - - - - - - - 1018.7 1018.7 -
30/10:00am 17.5 - - - - - - - - - 1018.5 1018.5 -
30/09:30am 17.0 - - - - - - - - - 1018.4 1018.4 -
30/09:00am 16.3 - - - - - - - - - 1018.2 1018.2 -
30/08:30am 16.8 - - - - - - - - - 1018.1 1018.1 -
30/08:00am 16.5 - - - - - - - - - 1017.6 1017.6 -
30/07:30am 15.7 - - - - - - - - - 1017.4 1017.4 -
30/07:00am 14.5 - - - - - - - - - 1017.0 1017.0 -
30/06:30am 16.0 - - - - - - - - - 1016.8 1016.8 -
30/06:00am 16.1 - - - - - - - - - 1016.6 1016.6 -
30/05:30am 13.2 - - - - - - - - - 1016.7 1016.7 -
30/05:00am 13.1 - - - - - - - - - 1016.7 1016.7 -
30/04:30am 13.2 - - - - - - - - - 1016.7 1016.7 -
30/04:00am 14.4 - - - - - - - - - 1016.6 1016.6 -
30/03:30am 13.2 - - - - - - - - - 1016.7 1016.7 -
30/03:00am 13.8 - - - - - - - - - 1016.9 1016.9 -
30/02:30am 14.2 - - - - - - - - - 1017.2 1017.2 -
30/02:00am 14.0 - - - - - - - - - 1017.5 1017.5 -
30/01:30am 13.8 - - - - - - - - - 1017.8 1017.8 -
30/01:00am 14.0 - - - - - - - - - 1018.0 1018.0 -
30/12:30am 13.9 - - - - - - - - - 1017.9 1017.9 -
30/12:00am 13.9 - - - - - - - - - 1018.0 1018.0 -
 
Date/Time
EDT
Temp
°C
App
Temp
°C
Dew
Point
Rel
Hum
%
Delta-T
°C
Wind Press
QNH
hPa
Press
MSL
hPa
Rain
since 9 am
mm
Dir
 
Spd
km/h
Gust
km/h
Spd
kts
Gust
kts
29/11:30pm 13.8 - - - - - - - - - 1018.2 1018.2 -
29/11:00pm 14.0 - - - - - - - - - 1018.4 1018.4 -
29/10:30pm 13.9 - - - - - - - - - 1018.4 1018.4 -
29/10:00pm 13.9 - - - - - - - - - 1018.5 1018.5 -
29/09:30pm 13.8 - - - - - - - - - 1018.4 1018.4 -
29/09:00pm 13.7 - - - - - - - - - 1018.1 1018.1 -
29/08:30pm 13.8 - - - - - - - - - 1017.8 1017.8 -
29/08:00pm 13.6 - - - - - - - - - 1017.5 1017.5 -
29/07:30pm 13.8 - - - - - - - - - 1017.3 1017.3 -
29/07:00pm 13.7 - - - - - - - - - 1016.8 1016.8 -
29/06:30pm 13.6 - - - - - - - - - 1016.5 1016.5 -
29/06:00pm 14.3 - - - - - - - - - 1016.0 1016.0 -
29/05:30pm 14.5 - - - - - - - - - 1015.8 1015.8 -
29/05:00pm 15.0 - - - - - - - - - 1015.5 1015.5 -
29/04:30pm 14.9 - - - - - - - - - 1015.4 1015.4 -
29/04:00pm 14.8 - - - - - - - - - 1015.4 1015.4 -
29/03:30pm 16.0 - - - - - - - - - 1014.7 1014.7 -
29/03:00pm 19.2 - - - - - - - - - 1013.6 1013.6 -
29/02:30pm 18.9 - - - - - - - - - 1013.8 1013.8 -
29/02:00pm 18.7 - - - - - - - - - 1013.9 1013.9 -
29/01:30pm 18.5 - - - - - - - - - 1014.0 1014.0 -
29/01:00pm 18.2 - - - - - - - - - 1014.3 1014.3 -
29/12:30pm 17.7 - - - - - - - - - 1014.6 1014.6 -
29/12:00pm 17.2 - - - - - - - - - 1014.7 1014.7 -
29/11:30am 17.0 - - - - - - - - - 1014.9 1014.9 -
29/11:00am 17.2 - - - - - - - - - 1015.1 1015.1 -
29/10:30am 16.1 - - - - - - - - - 1014.9 1014.9 -
29/10:00am 15.0 - - - - - - - - - 1015.0 1015.0 -
29/09:30am 13.9 - - - - - - - - - 1015.0 1015.0 -
29/09:00am 13.5 - - - - - - - - - 1015.0 1015.0 -
29/08:30am 13.2 - - - - - - - - - 1015.2 1015.2 -
29/08:00am 12.3 - - - - - - - - - 1014.6 1014.6 -

Other Formats:

Comma delimited format used in spreadsheet applications
http://www.bom.gov.au/fwo/IDT60801/IDT60801.95987.axf

JavaScript Object Notation format (JSON) in row-major order
http://www.bom.gov.au/fwo/IDT60801/IDT60801.95987.json